Time;durP1;ratioP1;P1;durP2;ratioP2;P2;SDS_P1;SDS_P2;PMS_P1;PMS_P2;Temp;Humidity;BMP_temperature;BMP_pressure;BME280_temperature;BME280_humidity;BME280_pressure;Samples;Min_cycle;Max_cycle;Signal;HPM_P1;HPM_P2
2024/04/19 00:00:29;;;;;;;5.28;2.80;;;;;;;7.18;100.00;101488.00;5508656;26;19931;-38
2024/04/19 00:02:55;;;;;;;6.10;2.70;;;;;;;7.16;100.00;101497.28;5508062;26;20000;-39
2024/04/19 00:05:20;;;;;;;5.63;2.90;;;;;;;7.04;100.00;101471.94;5500009;26;19993;-39
2024/04/19 00:07:45;;;;;;;5.97;2.70;;;;;;;7.11;100.00;101467.44;5492482;26;20013;-39
2024/04/19 00:10:11;;;;;;;5.10;2.73;;;;;;;7.11;100.00;101478.19;5492589;26;19990;-38
2024/04/19 00:12:36;;;;;;;6.13;3.00;;;;;;;7.03;100.00;101460.34;5492366;26;19994;-38
2024/04/19 00:15:02;;;;;;;3.90;2.27;;;;;;;6.94;100.00;101450.75;5492156;26;20055;-38
2024/04/19 00:17:27;;;;;;;3.90;2.50;;;;;;;7.05;100.00;101454.78;5492361;26;20003;-38
2024/04/19 00:19:52;;;;;;;3.87;2.47;;;;;;;7.04;100.00;101451.25;5492687;26;20427;-39
2024/04/19 00:22:19;;;;;;;7.37;2.97;;;;;;;7.03;100.00;101446.91;5492312;26;19997;-39
2024/04/19 00:24:44;;;;;;;3.47;2.55;;;;;;;7.05;100.00;101446.72;5492899;26;20687;-39
2024/04/19 00:27:09;;;;;;;4.70;2.47;;;;;;;6.99;100.00;101439.41;5492035;26;20014;-39
2024/04/19 00:29:34;;;;;;;5.07;2.83;;;;;;;6.96;100.00;101433.38;5492603;26;20398;-39
2024/04/19 00:32:00;;;;;;;5.47;2.93;;;;;;;6.96;100.00;101433.38;5492106;26;19998;-39
2024/04/19 00:34:25;;;;;;;5.30;2.40;;;;;;;6.92;100.00;101420.50;5492362;26;20066;-39
2024/04/19 00:36:50;;;;;;;4.50;2.80;;;;;;;6.92;100.00;101420.50;5492530;26;20002;-39
2024/04/19 00:39:16;;;;;;;4.50;2.63;;;;;;;6.82;100.00;101406.56;5459765;26;20030;-39
2024/04/19 00:41:41;;;;;;;4.33;2.83;;;;;;;6.95;100.00;101420.97;5491881;26;20066;-39
2024/04/19 00:44:06;;;;;;;5.47;2.77;;;;;;;6.88;100.00;101395.91;5492273;26;20005;-39
2024/04/19 00:46:32;;;;;;;5.20;2.93;;;;;;;6.92;100.00;101396.31;5491662;26;20084;-39
2024/04/19 00:48:58;;;;;;;5.10;3.20;;;;;;;6.89;100.00;101389.50;5491970;26;19990;-39
2024/04/19 00:51:24;;;;;;;4.25;3.28;;;;;;;6.79;100.00;101378.22;5491885;26;20001;-39
2024/04/19 00:53:50;;;;;;;5.13;2.92;;;;;;;6.86;100.00;101391.72;5491707;26;20310;-39
2024/04/19 00:56:16;;;;;;;4.63;2.50;;;;;;;6.88;100.00;101381.59;5491647;26;19995;-39
2024/04/19 00:58:41;;;;;;;;;;;;;;;6.94;100.00;101387.03;5492997;26;20039;-39
2024/04/19 01:01:07;;;;;;;5.05;3.03;;;;;;;6.80;100.00;101365.63;5491507;26;19928;-39
2024/04/19 01:03:32;;;;;;;5.93;3.50;;;;;;;6.85;100.00;101374.75;5492226;26;19990;-39
2024/04/19 01:05:58;;;;;;;5.07;3.20;;;;;;;6.89;100.00;101367.97;5491987;26;19994;-39
2024/04/19 01:08:24;;;;;;;4.85;3.83;;;;;;;6.82;100.00;101361.69;5491684;26;19990;-39
2024/04/19 01:10:49;;;;;;;5.22;4.22;;;;;;;6.86;100.00;101368.34;5491542;26;20002;-39
2024/04/19 01:13:15;;;;;;;4.43;3.92;;;;;;;6.82;100.00;101350.94;5491512;26;20410;-39
2024/04/19 01:15:40;;;;;;;6.45;4.03;;;;;;;6.89;100.00;101365.28;5491588;26;20001;-39
2024/04/19 01:18:07;;;;;;;5.35;4.00;;;;;;;6.85;100.00;101347.06;5489840;26;19990;-39
2024/04/19 01:20:32;;;;;;;6.68;4.50;;;;;;;6.85;100.00;101344.38;5492139;26;19994;-39
2024/04/19 01:22:59;;;;;;;6.15;4.95;;;;;;;6.85;100.00;101328.22;5491753;26;20001;-39
2024/04/19 01:25:36;;;;;;;6.32;4.55;;;;;;;6.87;100.00;101327.00;5491764;26;19994;-39
2024/04/19 01:28:10;;;;;;;6.38;4.43;;;;;;;6.82;100.00;101315.16;5491797;26;20309;-39
2024/04/19 01:30:42;;;;;;;5.15;4.43;;;;;;;6.85;100.00;101320.16;5491644;26;20018;-39
2024/04/19 01:33:08;;;;;;;5.50;4.53;;;;;;;6.85;100.00;101312.94;5491530;26;20001;-39
2024/04/19 01:35:33;;;;;;;5.53;4.30;;;;;;;6.88;100.00;101317.94;5491604;26;19998;-39
2024/04/19 01:37:58;;;;;;;5.47;4.50;;;;;;;6.87;100.00;101316.25;5491175;26;19998;-39
2024/04/19 01:40:24;;;;;;;5.13;4.23;;;;;;;6.88;100.00;101296.41;5491202;26;20065;-39
2024/04/19 01:42:49;;;;;;;5.17;4.23;;;;;;;6.88;100.00;101290.19;5491503;26;20307;-39
2024/04/19 01:45:14;;;;;;;4.73;4.20;;;;;;;6.89;100.00;101278.44;5491413;26;20314;-39
2024/04/19 01:47:40;;;;;;;5.15;4.15;;;;;;;6.92;100.00;101281.53;5490676;26;20070;-39
2024/04/19 01:50:07;;;;;;;6.07;4.72;;;;;;;6.86;100.00;101266.19;5491072;26;19998;-39
2024/04/19 01:52:32;;;;;;;6.93;5.40;;;;;;;6.77;100.00;101253.94;5490963;26;19998;-39
2024/04/19 01:54:57;;;;;;;5.78;5.00;;;;;;;6.84;100.00;101259.38;5458831;26;20304;-39
2024/04/19 01:57:23;;;;;;;5.23;4.03;;;;;;;6.84;100.00;101257.50;5491305;26;20437;-39
2024/04/19 01:59:48;;;;;;;4.70;4.20;;;;;;;6.81;100.00;101249.00;5491225;26;19994;-39
2024/04/19 02:02:13;;;;;;;5.97;4.57;;;;;;;6.77;100.00;101240.50;5491234;26;20407;-39
2024/04/19 02:04:39;;;;;;;5.95;4.60;;;;;;;6.84;100.00;101252.13;5491584;26;20039;-39
2024/04/19 02:07:04;;;;;;;4.27;3.60;;;;;;;6.85;100.00;101234.16;5490566;26;20331;-39
2024/04/19 02:09:32;;;;;;;4.70;3.50;;;;;;;6.84;100.00;101229.81;5490789;26;20009;-39
2024/04/19 02:11:57;;;;;;;5.68;4.30;;;;;;;6.85;100.00;101229.59;5490663;26;19994;-39
2024/04/19 02:14:23;;;;;;;5.33;3.33;;;;;;;6.85;100.00;101226.91;5490965;26;20009;-39
2024/04/19 02:16:48;;;;;;;4.03;3.13;;;;;;;6.88;100.00;101221.16;5490339;26;20013;-39
2024/04/19 02:19:14;;;;;;;6.17;3.40;;;;;;;6.83;100.00;101209.28;5490675;26;20338;-39
2024/04/19 02:21:40;;;;;;;5.90;3.28;;;;;;;6.83;100.00;101204.78;5490793;26;19994;-39
2024/04/19 02:24:06;;;;;;;;;;;;;;;6.89;100.00;101203.97;5491115;26;20074;-39
2024/04/19 02:26:32;;;;;;;4.30;2.80;;;;;;;6.82;100.00;101197.72;5490577;26;19988;-39
2024/04/19 02:31:41;;;;;;;4.70;2.80;;;;;;;6.76;100.00;101182.38;5492033;26;20070;-39
2024/04/19 02:34:07;;;;;;;6.10;3.10;;;;;;;6.78;100.00;101179.50;5490409;26;20383;-39
2024/04/19 02:36:32;;;;;;;4.20;3.37;;;;;;;6.75;100.00;101180.72;5489756;26;20009;-39
2024/04/19 02:38:58;;;;;;;5.47;3.08;;;;;;;6.71;100.00;101172.22;5489977;26;20005;-39
2024/04/19 02:41:24;;;;;;;4.13;2.97;;;;;;;6.71;100.00;101171.41;5489888;26;20334;-39
2024/04/19 02:43:49;;;;;;;3.83;3.05;;;;;;;6.74;100.00;101165.63;5489825;26;19994;-39
2024/04/19 02:46:16;;;;;;;3.90;3.20;;;;;;;6.68;100.00;101167.25;5489790;26;19994;-39
2024/04/19 02:48:41;;;;;;;7.30;3.47;;;;;;;6.69;100.00;101160.03;5490059;26;19994;-39
2024/04/19 02:51:06;;;;;;;4.10;3.70;;;;;;;6.67;100.00;101154.84;5489856;26;20009;-39
2024/04/19 02:53:32;;;;;;;6.17;3.77;;;;;;;6.67;100.00;101149.47;5489574;26;20070;-39
2024/04/19 02:55:58;;;;;;;;;;;;;;;6.74;100.00;101146.00;5490263;26;19994;-39
2024/04/19 02:58:24;;;;;;;7.40;4.00;;;;;;;6.62;100.00;101140.34;5489361;26;19997;-39
2024/04/19 03:00:49;;;;;;;5.38;4.85;;;;;;;6.61;100.00;101130.63;5490026;26;20335;-39
2024/04/19 03:03:15;;;;;;;9.03;5.00;;;;;;;6.67;100.00;101135.19;5457148;26;20325;-39
2024/04/19 03:05:40;;;;;;;5.87;5.07;;;;;;;6.67;100.00;101132.50;5489919;26;20219;-39
2024/04/19 03:08:05;;;;;;;5.73;4.47;;;;;;;6.68;100.00;101129.63;5489136;26;20238;-39
2024/04/19 03:10:31;;;;;;;5.93;4.82;;;;;;;6.65;100.00;101110.38;5489651;26;20315;-39
2024/04/19 03:12:56;;;;;;;5.70;4.50;;;;;;;6.66;100.00;101104.81;5489328;26;20066;-39
2024/04/19 03:15:21;;;;;;;7.73;5.00;;;;;;;6.72;100.00;101116.63;5489824;26;20063;-39
2024/04/19 03:17:47;;;;;;;6.17;5.43;;;;;;;6.64;100.00;101089.94;5489638;26;19994;-39
2024/04/19 03:20:12;;;;;;;6.87;5.20;;;;;;;6.62;100.00;101083.91;5489802;26;20062;-39
2024/04/19 03:22:38;;;;;;;5.70;5.13;;;;;;;6.69;100.00;101095.53;5489216;26;20215;-39
2024/04/19 03:25:04;;;;;;;6.37;5.17;;;;;;;6.70;100.00;101095.31;5489814;26;20009;-39
2024/04/19 03:27:29;;;;;;;;;;;;;;;6.79;100.00;101087.09;5489637;26;19994;-39
2024/04/19 03:29:55;;;;;;;7.10;5.63;;;;;;;6.72;100.00;101085.19;5489564;26;19923;-39
2024/04/19 03:32:22;;;;;;;;;;;;;;;6.78;100.00;101086.25;5489421;26;20255;-39
2024/04/19 03:34:48;;;;;;;6.05;5.45;;;;;;;6.72;100.00;101077.13;5488889;26;19927;-39
2024/04/19 03:37:13;;;;;;;5.97;5.22;;;;;;;6.73;100.00;101064.50;5488955;26;20062;-39
2024/04/19 03:39:39;;;;;;;6.35;5.53;;;;;;;6.69;100.00;101055.22;5489069;26;19997;-39
2024/04/19 03:42:10;;;;;;;7.07;5.60;;;;;;;6.74;100.00;101063.50;5492513;26;19998;-39
2024/04/19 03:47:20;;;;;;;6.22;5.22;;;;;;;6.77;100.00;101055.03;5493449;26;20039;-39
2024/04/19 03:49:45;;;;;;;6.77;5.63;;;;;;;6.78;100.00;101055.84;5492848;26;19994;-39
2024/04/19 03:52:11;;;;;;;6.90;5.47;;;;;;;6.79;100.00;101046.78;5492198;26;20730;-39
2024/04/19 03:54:36;;;;;;;6.53;5.10;;;;;;;6.80;100.00;101040.38;5492333;26;20006;-39
2024/04/19 03:57:01;;;;;;;5.83;4.90;;;;;;;6.77;100.00;101028.16;5492381;26;20009;-39
2024/04/19 03:59:27;;;;;;;5.93;5.33;;;;;;;6.81;100.00;101029.41;5492978;26;20447;-39
2024/04/19 04:01:52;;;;;;;6.53;5.60;;;;;;;6.78;100.00;101020.91;5492013;26;20267;-39
2024/04/19 04:04:17;;;;;;;5.17;4.67;;;;;;;6.69;100.00;100996.09;5492355;26;19998;-39
2024/04/19 04:06:43;;;;;;;6.57;5.43;;;;;;;6.69;100.00;100994.22;5492197;26;20002;-39
2024/04/19 04:09:08;;;;;;;6.37;4.93;;;;;;;6.77;100.00;100997.75;5492211;26;19994;-39
2024/04/19 04:11:33;;;;;;;5.50;5.00;;;;;;;6.73;100.00;100983.88;5492164;26;20423;-39
2024/04/19 04:13:58;;;;;;;6.07;4.60;;;;;;;6.86;100.00;100994.69;5492005;26;20402;-39
2024/04/19 04:16:24;;;;;;;5.30;4.63;;;;;;;6.84;100.00;100993.25;5492011;26;20002;-39
2024/04/19 04:18:49;;;;;;;4.97;4.57;;;;;;;6.84;100.00;100987.88;5492289;26;20419;-39
2024/04/19 04:21:15;;;;;;;4.70;4.30;;;;;;;6.83;100.00;100981.66;5491575;26;20430;-39
2024/04/19 04:23:40;;;;;;;4.87;4.47;;;;;;;6.86;100.00;100986.63;5492636;26;20009;-39
2024/04/19 04:26:05;;;;;;;7.63;5.30;;;;;;;6.87;100.00;100984.75;5491903;26;19994;-39
2024/04/19 04:28:30;;;;;;;4.70;4.17;;;;;;;6.87;100.00;100977.53;5492200;26;19991;-39
2024/04/19 04:30:56;;;;;;;4.63;4.23;;;;;;;6.90;100.00;100974.44;5491870;26;19994;-39
2024/04/19 04:33:21;;;;;;;4.53;4.13;;;;;;;6.91;100.00;100978.78;5491855;26;19998;-39
2024/04/19 04:35:46;;;;;;;5.07;4.57;;;;;;;6.89;100.00;100970.09;5492218;26;20300;-39
2024/04/19 04:38:12;;;;;;;4.78;4.38;;;;;;;6.91;100.00;100978.78;5491748;26;19994;-39
2024/04/19 04:40:38;;;;;;;4.07;3.75;;;;;;;6.91;100.00;100978.78;5492441;26;20344;-39
2024/04/19 04:43:04;;;;;;;4.70;4.07;;;;;;;6.94;100.00;100973.00;5491757;26;20009;-39
2024/04/19 04:45:29;;;;;;;;;;;;;;;7.00;100.00;100975.91;5492369;26;19990;-39
2024/04/19 04:47:55;;;;;;;4.25;3.92;;;;;;;6.93;100.00;100963.28;5491828;26;20247;-39
2024/04/19 04:50:20;;;;;;;4.72;4.03;;;;;;;6.96;100.00;100970.91;5491672;26;20338;-39
2024/04/19 04:52:46;;;;;;;4.40;4.00;;;;;;;6.96;100.00;100959.34;5491651;26;19990;-39
2024/04/19 04:55:14;;;;;;;4.50;4.10;;;;;;;6.92;100.00;100950.03;5491829;26;20248;-39
2024/04/19 04:57:39;;;;;;;4.35;4.05;;;;;;;6.94;100.00;100951.50;5491462;26;20307;-39
2024/04/19 05:00:06;;;;;;;4.37;3.97;;;;;;;6.97;100.00;100953.75;5492412;26;20001;-39
2024/04/19 05:02:32;;;;;;;3.72;3.42;;;;;;;6.99;100.00;100944.69;5491441;26;20343;-39
2024/04/19 05:04:57;;;;;;;4.22;3.72;;;;;;;6.88;100.00;100925.44;5491655;26;19998;-39
2024/04/19 05:07:25;;;;;;;3.57;3.27;;;;;;;6.95;100.00;100936.19;5491635;26;20295;-39
2024/04/19 05:09:51;;;;;;;3.90;3.60;;;;;;;7.02;100.00;100939.69;5492205;26;20329;-39
2024/04/19 05:12:16;;;;;;;;;;;;;;;7.10;100.00;100941.38;5492139;26;20041;-39
2024/04/19 05:14:42;;;;;;;3.78;3.47;;;;;;;7.06;100.00;100940.13;5491490;26;19932;-39
2024/04/19 05:17:07;;;;;;;3.50;3.20;;;;;;;7.10;100.00;100936.81;5491457;26;20054;-39
2024/04/19 05:19:32;;;;;;;3.87;3.57;;;;;;;7.08;100.00;100935.38;5491724;26;19990;-39
2024/04/19 05:21:58;;;;;;;3.80;3.50;;;;;;;7.10;100.00;100936.81;5491147;26;19990;-39
2024/04/19 05:24:23;;;;;;;4.77;3.37;;;;;;;7.07;100.00;100928.31;5492064;26;19998;-39
2024/04/19 05:26:48;;;;;;;3.60;3.30;;;;;;;7.12;100.00;100934.75;5491083;26;20380;-39
2024/04/19 05:29:14;;;;;;;3.53;3.23;;;;;;;7.13;100.00;100927.53;5491313;26;20419;-39
2024/04/19 05:31:39;;;;;;;3.60;3.30;;;;;;;7.14;100.00;100921.09;5491053;26;20419;-39
2024/04/19 05:34:04;;;;;;;3.20;2.90;;;;;;;7.18;100.00;100935.81;5491362;26;20001;-39
2024/04/19 05:36:29;;;;;;;3.40;3.10;;;;;;;7.20;100.00;100931.03;5490951;26;19989;-39
2024/04/19 05:38:55;;;;;;;3.70;3.40;;;;;;;7.21;100.00;100933.50;5491109;26;20002;-39
2024/04/19 05:41:20;;;;;;;3.27;3.07;;;;;;;7.24;100.00;100924.22;5490844;26;19993;-39
2024/04/19 05:43:46;;;;;;;4.07;3.78;;;;;;;7.26;100.00;100922.13;5490888;26;20431;-39
2024/04/19 05:46:12;;;;;;;4.55;4.15;;;;;;;7.26;100.00;100911.38;5490523;26;20002;-39
2024/04/19 05:48:37;;;;;;;4.10;3.80;;;;;;;7.27;100.00;100907.66;5490765;26;20078;-39
2024/04/19 05:51:03;;;;;;;5.30;4.37;;;;;;;7.36;100.00;100906.41;5490810;26;19994;-39
2024/04/19 05:53:28;;;;;;;4.32;3.92;;;;;;;7.39;100.00;100919.44;5490175;26;19990;-39
2024/04/19 05:55:53;;;;;;;5.33;4.83;;;;;;;7.42;100.00;100913.66;5490423;26;19990;-39
2024/04/19 05:58:21;;;;;;;4.83;4.20;;;;;;;7.45;100.00;100915.91;5489759;26;19994;-39
2024/04/19 06:00:47;;;;;;;6.25;5.65;;;;;;;7.47;100.00;100913.84;5457532;26;20318;-39
2024/04/19 06:03:12;;;;;;;;;;;;;;;7.56;100.00;100916.31;5489817;26;19994;-39
2024/04/19 06:05:38;;;;;;;5.20;4.80;;;;;;;7.57;100.00;100912.59;5490835;26;20333;-39
2024/04/19 06:08:03;;;;;;;5.87;5.03;;;;;;;7.53;100.00;100897.91;5490392;26;20331;-39
2024/04/19 06:10:29;;;;;;;5.57;5.07;;;;;;;7.57;100.00;100901.84;5491304;26;19997;-39
2024/04/19 06:12:54;;;;;;;8.35;5.78;;;;;;;7.60;100.00;100901.41;5490032;26;20036;-39
2024/04/19 06:15:19;;;;;;;8.20;6.03;;;;;;;7.62;100.00;100904.72;5490343;26;19997;-39
2024/04/19 06:17:45;;;;;;;13.37;7.07;;;;;;;7.66;100.00;100897.88;5490648;26;20418;-39
2024/04/19 06:20:10;;;;;;;9.53;6.93;;;;;;;7.70;100.00;100908.00;5490377;26;20002;-39
2024/04/19 06:22:35;;;;;;;7.37;6.23;;;;;;;7.78;100.00;100909.66;5489857;26;19990;-39
2024/04/19 06:25:01;;;;;;;9.57;6.43;;;;;;;7.78;100.00;100893.50;5490506;26;20195;-39
2024/04/19 06:27:26;;;;;;;10.73;6.55;;;;;;;7.88;100.00;100899.25;5490136;26;20006;-39
2024/04/19 06:29:52;;;;;;;7.73;6.20;;;;;;;7.86;100.00;100890.59;5490154;26;19990;-39
2024/04/19 06:32:17;;;;;;;7.87;6.67;;;;;;;7.94;100.00;100897.59;5490053;26;19997;-39
2024/04/19 06:34:42;;;;;;;9.83;6.67;;;;;;;7.96;100.00;100892.84;5490496;26;20001;-39
2024/04/19 06:37:08;;;;;;;9.23;6.97;;;;;;;8.00;100.00;100894.03;5490540;26;20220;-39
2024/04/19 06:39:33;;;;;;;8.97;6.47;;;;;;;7.96;100.00;100873.97;5489412;26;20449;-39
2024/04/19 06:41:59;;;;;;;12.50;6.43;;;;;;;8.06;100.00;100885.13;5488264;26;20446;-39
2024/04/19 06:44:25;;;;;;;7.80;6.50;;;;;;;8.11;100.00;100873.72;5488363;26;20092;-39
2024/04/19 06:46:50;;;;;;;9.48;6.55;;;;;;;8.16;100.00;100869.34;5488882;26;19994;-39
2024/04/19 06:49:16;;;;;;;8.38;6.32;;;;;;;8.22;100.00;100868.47;5488847;26;19994;-39
2024/04/19 06:51:41;;;;;;;12.82;7.03;;;;;;;8.24;100.00;100850.22;5489045;26;20091;-39
2024/04/19 06:54:07;;;;;;;9.80;6.63;;;;;;;8.36;100.00;100866.56;5488613;26;19994;-39
2024/04/19 06:56:32;;;;;;;10.70;6.37;;;;;;;8.40;100.00;100858.88;5488708;26;19994;-39
2024/04/19 06:58:57;;;;;;;10.60;7.07;;;;;;;8.45;100.00;100865.28;5489846;26;19997;-39
2024/04/19 07:01:23;;;;;;;8.47;5.87;;;;;;;8.48;100.00;100862.13;5488463;26;19995;-39
2024/04/19 07:03:51;;;;;;;10.02;5.85;;;;;;;8.55;100.00;100861.28;5488852;26;20004;-39
2024/04/19 07:06:16;;;;;;;13.63;6.15;;;;;;;8.64;100.00;100857.28;5488817;26;19997;-39
2024/04/19 07:08:41;;;;;;;13.27;6.63;;;;;;;8.69;100.00;100846.69;5490004;26;19990;-39
2024/04/19 07:11:07;;;;;;;8.47;5.47;;;;;;;8.72;100.00;100854.31;5489797;26;20232;-39
2024/04/19 07:13:33;;;;;;;12.50;5.57;;;;;;;8.74;100.00;100844.97;5489266;26;19991;-39
2024/04/19 07:15:58;;;;;;;;;;;;;;;8.83;100.00;100850.06;5492127;26;19997;-39
2024/04/19 07:18:24;;;;;;;10.63;4.70;;;;;;;8.83;100.00;100852.78;5492903;26;20249;-39
2024/04/19 07:20:53;;;;;;;9.10;4.68;;;;;;;8.86;100.00;100842.38;5493137;26;20207;-39
2024/04/19 07:23:20;;;;;;;9.60;5.15;;;;;;;8.88;100.00;100842.16;5492747;26;20008;-39
2024/04/19 07:25:46;;;;;;;11.88;5.50;;;;;;;8.89;100.00;100844.66;5492765;26;20009;-39
2024/04/19 07:28:11;;;;;;;10.10;4.30;;;;;;;8.91;100.00;100845.25;5492689;26;19998;-39
2024/04/19 07:30:36;;;;;;;9.20;4.87;;;;;;;8.93;100.00;100856.66;5492968;26;20199;-39
2024/04/19 07:33:03;;;;;;;8.73;4.67;;;;;;;8.88;100.00;100845.69;5492434;26;20008;-39
2024/04/19 07:35:28;;;;;;;12.18;4.82;;;;;;;8.92;100.00;100846.06;5492663;26;20009;-39
2024/04/19 07:37:53;;;;;;;9.80;4.70;;;;;;;8.94;100.00;100844.00;5492932;26;20383;-39
2024/04/19 07:40:18;;;;;;;6.87;3.67;;;;;;;8.93;100.00;100842.31;5493229;26;19994;-39
2024/04/19 07:42:45;;;;;;;10.37;4.43;;;;;;;8.82;100.00;100835.78;5492706;26;19994;-39
2024/04/19 07:45:11;;;;;;;6.80;3.72;;;;;;;8.86;100.00;100833.47;5492963;26;20002;-39
2024/04/19 07:47:37;;;;;;;9.40;3.75;;;;;;;8.83;100.00;100837.41;5492236;26;19994;-39
2024/04/19 07:50:03;;;;;;;8.43;3.88;;;;;;;8.84;100.00;100838.28;5492478;26;20009;-39
2024/04/19 07:52:28;;;;;;;7.03;3.60;;;;;;;8.73;100.00;100813.63;5492110;26;20074;-39
2024/04/19 07:54:53;;;;;;;9.17;3.90;;;;;;;8.83;100.00;100826.63;5493193;26;20309;-39
2024/04/19 07:57:19;;;;;;;8.43;4.13;;;;;;;8.79;100.00;100817.34;5492372;26;20062;-39
2024/04/19 07:59:44;;;;;;;8.80;4.10;;;;;;;8.79;100.00;100806.56;5492705;26;20070;-39
2024/04/19 08:02:09;;;;;;;10.87;3.50;;;;;;;8.94;100.00;100828.63;5492635;26;20078;-39
2024/04/19 08:04:35;;;;;;;8.43;3.13;;;;;;;8.97;100.00;100814.69;5493000;26;20064;-39
2024/04/19 08:07:00;;;;;;;8.90;3.40;;;;;;;9.00;100.00;100816.94;5492455;26;19994;-39
2024/04/19 08:09:27;;;;;;;6.77;2.57;;;;;;;9.07;100.00;100826.84;5492936;26;20533;-39
2024/04/19 08:11:52;;;;;;;8.82;2.70;;;;;;;9.09;100.00;100814.00;5492611;26;20005;-39
2024/04/19 08:14:17;;;;;;;8.02;2.63;;;;;;;9.11;100.00;100817.28;5492922;26;20322;-39
2024/04/19 08:16:43;;;;;;;9.07;3.43;;;;;;;9.11;100.00;100811.88;5492404;26;20009;-39
2024/04/19 08:19:10;;;;;;;8.80;3.00;;;;;;;9.25;100.00;100816.09;5492642;26;19990;-39
2024/04/19 08:21:35;;;;;;;9.32;3.00;;;;;;;9.41;100.00;100812.81;5492038;26;20259;-39
2024/04/19 08:24:02;;;;;;;6.55;3.20;;;;;;;9.60;100.00;100799.31;5492385;26;20429;-39
2024/04/19 08:26:28;;;;;;;11.45;3.33;;;;;;;9.69;100.00;100815.00;5491252;26;20025;-39
2024/04/19 08:28:53;;;;;;;8.60;3.63;;;;;;;9.68;100.00;100815.22;5492044;26;20006;-39
2024/04/19 08:31:18;;;;;;;10.77;2.83;;;;;;;9.62;100.00;100806.16;5491723;26;20025;-39
2024/04/19 08:33:44;;;;;;;9.20;2.77;;;;;;;9.56;100.00;100801.63;5491877;26;20095;-39
2024/04/19 08:36:09;;;;;;;7.90;2.87;;;;;;;9.53;100.00;100800.22;5491910;26;20580;-39
2024/04/19 08:38:34;;;;;;;9.53;2.77;;;;;;;9.52;100.00;100805.88;5491916;26;19998;-39
2024/04/19 08:41:03;;;;;;;6.83;2.50;;;;;;;9.46;100.00;100795.94;5492109;26;20072;-39
2024/04/19 08:43:33;;;;;;;6.63;2.45;;;;;;;9.64;100.00;100812.16;5491685;26;19998;-39
2024/04/19 08:46:00;;;;;;;7.53;2.60;;;;;;;9.69;100.00;100806.06;5492411;26;20030;-39
2024/04/19 08:48:27;;;;;;;6.28;2.47;;;;;;;9.75;100.00;100802.47;5491500;26;20068;-39
2024/04/19 08:50:56;;;;;;;5.32;1.95;;;;;;;9.85;100.00;100805.44;5491832;26;20322;-39
2024/04/19 08:53:24;;;;;;;4.35;1.98;;;;;;;9.85;100.00;100797.34;5491819;26;20022;-39
2024/04/19 08:55:50;;;;;;;6.63;2.03;;;;;;;9.92;100.00;100808.91;5492056;26;19998;-39
2024/04/19 08:58:17;;;;;;;6.90;1.80;;;;;;;9.90;100.00;100804.75;5491404;26;20001;-39
2024/04/19 09:00:42;;;;;;;5.75;1.92;;;;;;;9.90;100.00;100805.59;5491937;26;19994;-39
2024/04/19 09:03:08;;;;;;;7.15;1.83;;;;;;;9.89;100.00;100805.81;5491647;26;20340;-39
2024/04/19 09:05:33;;;;;;;4.50;1.48;;;;;;;9.91;100.00;100809.16;5491775;26;19994;-39
2024/04/19 09:08:00;;;;;;;6.20;1.70;;;;;;;9.90;100.00;100800.19;5491688;26;19999;-39
2024/04/19 09:10:25;;;;;;;6.65;1.90;;;;;;;9.96;100.00;100798.47;5491894;26;20211;-39
2024/04/19 09:12:51;;;;;;;7.68;2.22;;;;;;;10.01;100.00;100801.31;5491568;26;20370;-39
2024/04/19 09:15:18;;;;;;;5.70;1.85;;;;;;;10.11;100.00;100792.66;5492097;26;20055;-39
2024/04/19 09:17:46;;;;;;;8.35;2.80;;;;;;;10.09;100.00;100787.47;5491015;26;20439;-39
2024/04/19 09:20:11;;;;;;;6.38;1.90;;;;;;;10.16;100.00;100790.09;5491650;26;20344;-39
2024/04/19 09:22:37;;;;;;;5.30;1.95;;;;;;;10.11;100.00;100787.25;5491496;26;19994;-39
2024/04/19 09:25:02;;;;;;;7.95;1.83;;;;;;;10.09;100.00;100792.88;5491618;26;19995;-39
2024/04/19 09:27:29;;;;;;;4.93;1.77;;;;;;;10.14;100.00;100789.50;5491044;26;20098;-39
2024/04/19 09:29:55;;;;;;;2.92;1.30;;;;;;;10.13;100.00;100795.94;5491319;26;19998;-39
2024/04/19 09:32:22;;;;;;;5.47;1.58;;;;;;;10.07;100.00;100797.69;5491209;26;19994;-39
2024/04/19 09:34:48;;;;;;;6.05;1.55;;;;;;;10.11;100.00;100814.28;5490869;26;20070;-39
2024/04/19 09:37:13;;;;;;;4.20;1.38;;;;;;;9.97;100.00;100805.53;5490442;26;20002;-39
2024/04/19 09:39:39;;;;;;;7.20;1.30;;;;;;;9.86;100.00;100814.38;5491018;26;20052;-39
2024/04/19 09:42:07;;;;;;;6.00;1.50;;;;;;;9.66;100.00;100804.66;5490849;26;20600;-39
2024/04/19 09:44:33;;;;;;;8.38;1.88;;;;;;;9.65;100.00;100810.28;5491147;26;20001;-39
2024/04/19 09:47:02;;;;;;;7.22;1.60;;;;;;;9.62;100.00;100797.25;5489621;26;20001;-39
2024/04/19 09:49:30;;;;;;;7.00;1.85;;;;;;;9.64;100.00;100790.53;5490628;26;20002;-39
2024/04/19 09:51:56;;;;;;;4.18;1.67;;;;;;;9.75;100.00;100805.16;5490601;26;20016;-39
2024/04/19 09:54:32;;;;;;;5.80;1.45;;;;;;;9.78;100.00;100808.25;5491003;26;19997;-39
2024/04/19 09:56:59;;;;;;;5.45;1.58;;;;;;;9.76;100.00;100806.81;5491053;26;20314;-39
2024/04/19 09:59:25;;;;;;;4.53;1.27;;;;;;;9.79;100.00;100803.66;5491531;26;20009;-39
2024/04/19 10:01:51;;;;;;;;;;;;;;;9.89;100.00;100803.94;5491432;26;20319;-39
2024/04/19 10:04:17;;;;;;;5.10;1.70;;;;;;;9.94;100.00;100805.97;5490379;26;19932;-39
2024/04/19 10:06:43;;;;;;;;;;;;;;;10.10;100.00;100799.91;5491383;26;20055;-39
2024/04/19 10:09:13;;;;;;;6.47;1.70;;;;;;;10.16;100.00;100795.50;5490717;26;19936;-39
2024/04/19 10:11:41;;;;;;;4.22;1.40;;;;;;;10.15;100.00;100796.53;5491001;26;20018;-39
2024/04/19 10:14:07;;;;;;;5.22;1.80;;;;;;;10.12;100.00;100797.00;5491025;26;19994;-39
2024/04/19 10:16:33;;;;;;;6.88;2.00;;;;;;;10.11;100.00;100795.38;5490594;26;20073;-39
2024/04/19 10:18:59;;;;;;;5.43;1.52;;;;;;;10.12;100.00;100797.84;5490829;26;20425;-39
2024/04/19 10:21:28;;;;;;;7.15;1.75;;;;;;;10.01;100.00;100794.03;5490828;26;20014;-39
2024/04/19 10:23:56;;;;;;;7.03;2.03;;;;;;;9.99;100.00;100804.22;5490802;26;20006;-39
2024/04/19 10:26:23;;;;;;;8.75;1.55;;;;;;;9.77;100.00;100784.19;5490540;26;20002;-39
2024/04/19 10:28:50;;;;;;;5.80;1.25;;;;;;;9.62;100.00;100781.88;5490482;26;20006;-39
2024/04/19 10:31:15;;;;;;;4.13;1.40;;;;;;;9.48;100.00;100791.97;5490086;26;20001;-39
2024/04/19 10:33:41;;;;;;;6.13;1.50;;;;;;;9.42;100.00;100792.88;5457901;26;20001;-39
2024/04/19 10:36:10;;;;;;;6.22;1.27;;;;;;;9.42;100.00;100792.88;5490015;26;20231;-39
2024/04/19 10:38:36;;;;;;;4.85;1.20;;;;;;;9.46;100.00;100788.66;5489939;26;20407;-39
2024/04/19 10:41:03;;;;;;;4.03;1.30;;;;;;;9.50;100.00;100789.88;5489790;26;19994;-39
2024/04/19 10:43:30;;;;;;;7.22;1.58;;;;;;;9.42;100.00;100782.09;5489491;26;20026;-38
2024/04/19 10:45:55;;;;;;;8.80;1.60;;;;;;;9.48;100.00;100791.16;5490093;26;19997;-38
2024/04/19 10:48:21;;;;;;;5.43;1.45;;;;;;;9.55;100.00;100797.28;5490096;26;20377;-38
2024/04/19 10:50:46;;;;;;;;;;;;;;;9.70;100.00;100794.22;5490126;26;19994;-38
2024/04/19 10:53:12;;;;;;;6.53;1.30;;;;;;;9.69;100.00;100769.09;5489538;26;19991;-38
2024/04/19 10:55:38;;;;;;;7.65;1.58;;;;;;;9.83;100.00;100785.97;5489176;26;20433;-38
2024/04/19 10:58:04;;;;;;;3.15;1.33;;;;;;;9.92;100.00;100770.28;5489600;26;20510;-38
2024/04/19 11:00:29;;;;;;;5.07;1.40;;;;;;;9.94;100.00;100762.75;5490296;26;20072;-38
2024/04/19 11:02:56;;;;;;;5.97;1.70;;;;;;;10.03;100.00;100781.09;5489577;26;20219;-38
2024/04/19 11:05:23;;;;;;;6.05;1.75;;;;;;;10.06;100.00;100780.66;5490169;26;19990;-38
2024/04/19 11:07:49;;;;;;;4.90;1.50;;;;;;;10.14;100.00;100789.50;5489445;26;19990;-38
2024/04/19 11:10:14;;;;;;;5.90;1.45;;;;;;;10.23;100.00;100782.72;5489431;26;20062;-38
2024/04/19 11:12:40;;;;;;;7.32;2.10;;;;;;;10.21;100.00;100780.25;5489971;26;20422;-38
2024/04/19 11:15:07;;;;;;;5.40;1.40;;;;;;;10.22;100.00;100787.28;5489576;26;20001;-38
2024/04/19 11:17:32;;;;;;;10.68;2.30;;;;;;;10.29;100.00;100782.63;5489260;26;20030;-38
2024/04/19 11:19:58;;;;;;;7.97;1.85;;;;;;;10.41;100.00;100785.38;5489208;26;20001;-38
2024/04/19 11:22:24;;;;;;;9.52;2.10;;;;;;;10.54;100.00;100785.19;5488963;26;20000;-39
2024/04/19 11:24:53;;;;;;;8.30;2.28;;;;;;;10.60;100.00;100782.63;5489553;26;19998;-39